Station MBPA1 - 8736163 - Middle Bay Port, Mobile Bay, AL Image indicating link to RSS feed of recent meteorological observations for station MBPA1


Conditions at MBPA1 as of
(8:18 am CDT)
1318 GMT on 06/24/2024:
     

Click on the graph icon in the table below to see a time series plot of the last five days of that observation.

5-day plot - Air Temperature Air Temperature (ATMP): 85.6 °F
5-day plot - Dew Point Dew Point (DEWP): 78.1 °F
5-day plot - Visibility Visibility (VIS): 5.9 nmi
5-day plot - Heat Index Heat Index (HEAT): 97.9 °F
NOS Water Level Observation Network Water Level
Previous observations
TIME
(CDT)
5-day plot - Wind Direction
WDIR
 
5-day plot - Wind Speed
WSPD
kts
5-day plot - Wind Gust
GST
kts
5-day plot - Wave Height
WVHT
ft
5-day plot - Dominant Wave Period
DPD
sec
5-day plot - Average Wave Period
APD
sec
5-day plot - Mean Wave Direction
MWD
 
5-day plot - Atmospheric Pressure
PRES
in
5-day plot - Pressure Tendency
PTDY
in
5-day plot - Air Temperature
ATMP
°F
5-day plot - Water Temperature
WTMP
°F
5-day plot - Dew Point
DEWP
°F
5-day plot - Salinity
SAL
psu
5-day plot - Visibility
VIS
nmi
5-day plot - Tide (above MLLW)
TIDE
ft
2024-06-24 08:12 am--------- 85.1- 77.5- 5.9-
2024-06-24 08:06 am--------- 84.7- 77.7- 5.9-
2024-06-24 08:00 am--------- 84.7- 77.9- 5.9-
2024-06-24 07:54 am--------- 84.4- 77.9- 5.9-
2024-06-24 07:48 am--------- 84.0- 78.1- 5.9-
2024-06-24 07:42 am--------- 83.3- 77.9- 5.9-
2024-06-24 07:36 am--------- 82.9- 77.7- 5.9-
2024-06-24 07:30 am--------- 82.9- 77.9- 5.9-
2024-06-24 07:24 am--------- 82.9- 78.1- 5.9-
2024-06-24 07:18 am--------- 82.6- 78.1- 5.9-
2024-06-24 07:12 am--------- 82.4- 77.9- 5.9-
2024-06-24 07:06 am--------- 82.4- 78.1- 5.9-
2024-06-24 07:00 am--------- 82.0- 77.9- 5.9-
2024-06-24 06:54 am--------- 81.9- 78.1- 5.9-
2024-06-24 06:48 am--------- 81.7- 78.1- 5.9-
2024-06-24 06:42 am--------- 81.5- 78.1- 5.9-
2024-06-24 06:36 am--------- 81.1- 78.1- 5.9-
2024-06-24 06:30 am--------- 80.8- 77.9- 5.9-
2024-06-24 06:24 am--------- 80.8- 78.1- 5.9-
2024-06-24 06:18 am--------- 81.0- 78.3- 5.9-
2024-06-24 06:12 am--------- 81.1- 78.4- 5.9-
2024-06-24 06:06 am--------- 81.1- 78.3- 5.9-
2024-06-24 06:00 am--------- 80.8- 77.9- 5.9-
2024-06-24 05:54 am--------- 80.8- 78.1- 5.9-
2024-06-24 05:48 am--------- 81.0- 78.3- 5.9-
2024-06-24 05:42 am--------- 81.0- 78.4- 5.9-
2024-06-24 05:36 am--------- 80.8- 78.3- 5.9-
2024-06-24 05:30 am--------- 80.6- 78.3- 5.9-
2024-06-24 05:24 am--------- 80.6- 78.4- 5.9-
2024-06-24 05:18 am--------- 80.6- 78.3- 5.9-
2024-06-24 05:12 am--------- 80.6- 78.3- 5.9-
2024-06-24 05:06 am--------- 80.8- 78.3- 5.9-
2024-06-24 05:00 am--------- 81.0- 78.4- 5.9-
2024-06-24 04:54 am--------- 81.1- 78.6- 5.9-
2024-06-24 04:48 am--------- 81.3- 78.6- 5.9-
2024-06-24 04:42 am--------- 81.3- 78.6- 5.9-
2024-06-24 04:36 am--------- 81.5- 78.6- 5.9-
2024-06-24 04:30 am--------- 81.9- 78.8- 5.9-
2024-06-24 04:24 am--------- 81.7- 78.6- 5.9-
2024-06-24 04:18 am--------- 81.5- 78.4- 5.9-
2024-06-24 04:12 am--------- 81.3- 78.3- 5.9-
2024-06-24 04:06 am--------- 81.3- 78.3- 5.9-
2024-06-24 04:00 am--------- 81.5- 78.4- 5.9-
2024-06-24 03:54 am--------- 81.5- 78.4- 5.9-
2024-06-24 03:48 am--------- 81.3- 78.3- 5.9-
2024-06-24 03:42 am--------- 81.0- 78.1- 5.9-
2024-06-24 03:36 am--------- 81.1- 78.3- 5.9-
2024-06-24 03:30 am--------- 81.1- 78.3- 5.9-
2024-06-24 03:24 am--------- 81.1- 78.3- 5.9-
2024-06-24 03:18 am--------- 81.0- 78.1- 5.9-
2024-06-24 03:12 am--------- 80.8- 77.9- 5.9-
2024-06-24 03:06 am--------- 81.0- 78.1- 5.9-
2024-06-24 03:00 am--------- 81.1- 78.3- 5.9-
2024-06-24 02:54 am--------- 81.3- 78.4- 5.9-
2024-06-24 02:48 am--------- 81.5- 78.4- 5.9-
2024-06-24 02:42 am--------- 81.3- 78.1- 5.9-
2024-06-24 02:36 am--------- 81.3- 78.1- 5.9-
2024-06-24 02:30 am--------- 81.3- 78.1- 5.9-
2024-06-24 02:24 am--------- 81.5- 78.1- 5.9-
2024-06-24 02:18 am--------- 81.5- 77.9- 5.9-
2024-06-24 02:12 am--------- 81.5- 77.9- 5.9-
2024-06-24 02:06 am--------- 81.5- 77.7- 5.9-
2024-06-24 02:00 am--------- 81.7- 77.9- 5.9-
2024-06-24 01:54 am--------- 81.9- 77.7- 5.9-
2024-06-24 01:48 am--------- 82.2- 77.9- 5.9-
2024-06-24 01:42 am--------- 82.0- 77.7- 5.9-
2024-06-24 01:36 am--------- 81.9- 77.5- 5.9-
2024-06-24 01:30 am--------- 81.9- 77.5- 5.9-
2024-06-24 01:24 am--------- 81.9- 77.5- 5.9-
2024-06-24 01:18 am--------- 82.0- 77.5- 5.9-
2024-06-24 01:12 am--------- 82.0- 77.5- 5.9-
2024-06-24 01:06 am--------- 82.0- 77.4- 5.9-
2024-06-24 01:00 am--------- 82.2- 77.4- 5.9-
2024-06-24 12:54 am--------- 82.2- 77.4- 5.9-
2024-06-24 12:48 am--------- 82.2- 77.4- 5.9-
2024-06-24 12:42 am--------- 81.9- 77.2- 5.9-
2024-06-24 12:36 am--------- 81.9- 77.2- 5.9-
2024-06-24 12:30 am--------- 81.7- 77.0- 5.9-
2024-06-24 12:24 am--------- 81.7- 77.0- 5.9-
2024-06-24 12:18 am--------- 81.7- 77.0- 5.9-
2024-06-24 12:12 am--------- 81.5- 76.8- 5.9-
2024-06-24 12:06 am--------- 81.7- 76.8- 5.9-
2024-06-24 12:00 am--------- 81.9- 77.0- 5.9-
2024-06-23 11:54 pm--------- 82.0- 77.2- 5.9-
2024-06-23 11:48 pm--------- 82.2- 77.2- 5.9-
2024-06-23 11:42 pm--------- 82.4- 77.4- 5.9-
2024-06-23 11:36 pm--------- 82.6- 77.5- 5.9-
2024-06-23 11:30 pm--------- 82.6- 77.5- 5.9-
2024-06-23 11:24 pm--------- 82.8- 77.9- 5.9-
2024-06-23 11:18 pm--------- 82.9- 78.3- 5.9-
2024-06-23 11:12 pm--------- 82.6- 77.9- 5.9-
2024-06-23 11:06 pm--------- 82.2- 77.7- 5.9-
2024-06-23 10:30 pm--------- 82.2- 76.1- 5.9-
2024-06-23 10:24 pm--------- 82.6- 76.3- 5.9-
2024-06-23 10:18 pm--------- 83.1- 77.0- 5.9-
2024-06-23 10:12 pm--------- 83.1- 77.2- 5.9-
2024-06-23 10:06 pm--------- 82.8- 76.8- 5.9-
2024-06-23 10:00 pm--------- 82.8- 76.8- 5.9-
2024-06-23 09:54 pm--------- 82.8- 76.6- 5.9-
2024-06-23 09:48 pm--------- 82.9- 76.6- 5.9-
2024-06-23 09:42 pm--------- 82.9- 76.5- 5.9-
2024-06-23 09:36 pm--------- 82.9- 76.3- 5.9-
2024-06-23 09:30 pm--------- 82.9- 76.1- 5.9-
2024-06-23 09:24 pm--------- 83.1- 76.3- 5.9-
2024-06-23 09:18 pm--------- 83.1- 76.1- 5.9-
2024-06-23 09:12 pm--------- 83.5- 76.3- 5.9-
2024-06-23 09:06 pm--------- 83.7- 76.3- 5.9-
2024-06-23 09:00 pm--------- 83.8- 76.6- 5.9-
2024-06-23 08:54 pm--------- 83.7- 76.1- 5.9-
2024-06-23 08:18 pm--------- 84.6- 75.2- 5.9-
2024-06-23 08:12 pm--------- 84.7- 75.4- 5.9-
2024-06-23 08:06 pm--------- 84.9- 75.4- 5.9-
2024-06-23 08:00 pm--------- 85.3- 75.6- 5.9-
2024-06-23 07:54 pm--------- 85.3- 75.0- 5.9-
2024-06-23 07:48 pm--------- 85.6- 75.0- 5.9-
2024-06-23 07:42 pm--------- 85.8- 74.7- 5.9-
2024-06-23 07:36 pm--------- 86.2- 74.7- 5.9-
2024-06-23 07:30 pm--------- 86.4- 74.5- 5.9-
2024-06-23 07:24 pm--------- 86.7- 75.0- 5.9-
2024-06-23 07:18 pm--------- 87.1- 75.4- 5.9-
2024-06-23 07:12 pm--------- 87.3- 74.8- 5.9-
2024-06-23 07:06 pm--------- 87.6- 73.6- 5.9-
2024-06-23 07:00 pm--------- 88.0- 72.9- 5.9-
2024-06-23 06:54 pm--------- 88.2- 73.0- 5.9-
2024-06-23 06:48 pm--------- 88.2- 73.2- 5.9-
2024-06-23 06:42 pm--------- 88.5- 73.8- 5.9-
2024-06-23 06:36 pm--------- 88.3- 72.9- 5.9-
2024-06-23 06:30 pm--------- 88.7- 72.1- 5.9-
2024-06-23 06:24 pm--------- 88.7- 72.7- 5.9-
2024-06-23 05:48 pm--------- 88.5- 75.6- 5.9-
2024-06-23 05:42 pm--------- 88.7- 75.7- 5.9-
2024-06-23 05:36 pm--------- 88.9- 76.1- 5.9-
2024-06-23 05:30 pm--------- 89.2- 76.1- 5.9-
2024-06-23 05:24 pm--------- 89.2- 76.5- 5.9-
2024-06-23 05:00 pm--------- 89.1- 76.6- 5.9-
2024-06-23 04:54 pm--------- 89.1- 78.4- 5.9-
2024-06-23 04:48 pm--------- 88.3- 78.1- 5.9-
2024-06-23 04:42 pm--------- 88.5- 78.8- 5.9-
2024-06-23 04:36 pm--------- 88.0- 79.2- 5.9-
2024-06-23 04:30 pm--------- 87.6- 78.8- 5.9-
2024-06-23 04:24 pm--------- 87.8- 79.5- 5.9-
2024-06-23 04:18 pm--------- 87.6- 78.8- 5.9-
2024-06-23 04:12 pm--------- 87.4- 78.8- 5.9-
2024-06-23 04:06 pm--------- 87.4- 78.4- 5.9-
2024-06-23 04:00 pm--------- 87.4- 78.6- 5.9-
2024-06-23 03:54 pm--------- 87.3- 78.6- 5.9-
2024-06-23 03:48 pm--------- 87.3- 79.0- 5.9-
2024-06-23 03:42 pm--------- 87.3- 79.0- 5.9-
2024-06-23 03:36 pm--------- 87.1- 79.2- 5.9-
2024-06-23 03:30 pm--------- 86.9- 78.8- 5.9-
2024-06-23 03:24 pm--------- 86.9- 78.6- 5.9-
2024-06-23 03:18 pm--------- 87.1- 78.6- 5.9-
2024-06-23 03:12 pm--------- 87.1- 78.8- 5.9-
2024-06-23 03:06 pm--------- 86.0- 77.9- 5.9-
2024-06-23 03:00 pm--------- 86.5- 78.1- 5.9-
2024-06-23 02:54 pm--------- 86.7- 77.5- 5.9-
2024-06-23 02:48 pm--------- 86.9- 77.9- 5.9-
2024-06-23 02:42 pm--------- 87.1- 77.4- 5.9-
2024-06-23 02:36 pm--------- 87.1- 77.2- 5.9-
2024-06-23 02:30 pm--------- 87.1- 76.8- 5.9-
2024-06-23 02:24 pm--------- 87.3- 76.8- 5.9-
2024-06-23 02:18 pm--------- 87.4- 76.6- 5.9-
2024-06-23 02:12 pm--------- 87.4- 76.3- 5.9-
2024-06-23 02:06 pm--------- 86.9- 76.1- 5.9-
2024-06-23 02:00 pm--------- 86.9- 75.6- 5.9-
2024-06-23 01:54 pm--------- 87.1- 74.8- 5.9-
2024-06-23 01:48 pm--------- 87.1- 74.8- 5.9-
2024-06-23 01:42 pm--------- 86.7- 75.2- 5.9-
2024-06-23 01:36 pm--------- 86.7- 76.3- 5.9-
2024-06-23 01:30 pm--------- 86.4- 75.9- 5.9-
2024-06-23 01:24 pm--------- 86.5- 76.5- 5.9-
2024-06-23 01:18 pm--------- 86.2- 76.3- 5.9-
2024-06-23 01:12 pm--------- 86.2- 76.5- 5.9-
2024-06-23 01:06 pm--------- 86.4- 76.5- 5.9-
2024-06-23 01:00 pm--------- 86.2- 76.6- 5.9-
2024-06-23 12:54 pm--------- 86.0- 76.6- 5.9-
2024-06-23 12:48 pm--------- 86.0- 77.2- 5.9-
2024-06-23 12:42 pm--------- 85.8- 77.0- 5.9-
2024-06-23 12:36 pm--------- 85.8- 77.7- 5.9-
2024-06-23 12:30 pm--------- 85.3- 77.7- 5.9-
2024-06-23 12:24 pm--------- 85.3- 77.9- 5.9-
2024-06-23 12:18 pm--------- 85.3- 78.1- 5.9-
2024-06-23 12:12 pm--------- 85.5- 78.3- 5.9-
2024-06-23 12:06 pm--------- 85.8- 78.4- 5.9-
2024-06-23 12:00 pm--------- 85.5- 77.9- 5.9-
2024-06-23 11:54 am--------- 85.1- 77.7- 5.9-
2024-06-23 11:48 am--------- 85.3- 77.9- 5.9-
2024-06-23 11:42 am--------- 85.3- 77.7- 5.9-
2024-06-23 11:36 am--------- 85.3- 78.1- 5.9-
2024-06-23 11:30 am--------- 85.1- 77.9- 5.9-
2024-06-23 11:24 am--------- 84.6- 77.2- 5.9-
2024-06-23 11:18 am--------- 85.3- 77.7- 5.9-
2024-06-23 11:12 am--------- 85.8- 78.3- 5.9-
2024-06-23 11:06 am--------- 85.5- 76.8- 5.9-
2024-06-23 11:00 am--------- 85.6- 76.6- 5.9-
2024-06-23 10:54 am--------- 85.6- 76.6- 5.9-
2024-06-23 10:48 am--------- 85.5- 76.8- 5.9-
2024-06-23 10:42 am--------- 85.3- 76.5- 5.9-
2024-06-23 10:36 am--------- 85.3- 76.1- 5.9-
2024-06-23 10:30 am--------- 86.4- 75.9- 5.9-
2024-06-23 10:24 am--------- 86.7- 76.1- 5.9-
2024-06-23 09:48 am--------- 87.3- 76.5- 5.9-
2024-06-23 09:42 am--------- 86.5- 75.4- 5.9-
2024-06-23 09:36 am--------- 86.5- 75.4- 5.9-
2024-06-23 09:30 am--------- 86.4- 76.1- 5.9-
2024-06-23 09:24 am--------- 86.0- 76.1- 5.9-
2024-06-23 09:00 am--------- 84.4- 75.7- 5.9-
2024-06-23 08:54 am--------- 85.1- 76.3- 5.9-